createdAt,value
2019-02-14T00:00:03.572Z,99.20
2019-02-14T00:02:37.173Z,99.20
2019-02-14T00:05:16.416Z,99.20
2019-02-14T00:07:46.130Z,99.20
2019-02-14T00:10:19.808Z,99.20
2019-02-14T00:12:53.483Z,99.20
2019-02-14T00:15:27.142Z,99.30
2019-02-14T00:18:00.868Z,99.30
2019-02-14T00:20:34.473Z,99.40
2019-02-14T00:23:08.137Z,99.50
2019-02-14T00:25:41.794Z,99.40
2019-02-14T00:28:15.790Z,99.40
2019-02-14T00:30:49.379Z,99.40
2019-02-14T00:33:23.096Z,99.50
2019-02-14T00:35:56.686Z,99.30
2019-02-14T00:38:30.406Z,99.40
2019-02-14T00:41:06.247Z,99.40
2019-02-14T00:43:39.849Z,99.40
2019-02-14T00:46:13.472Z,99.40
2019-02-14T00:48:47.218Z,99.30
2019-02-14T00:51:20.944Z,99.30
2019-02-14T00:53:54.604Z,99.30
2019-02-14T00:56:29.423Z,99.40
2019-02-14T00:59:03.163Z,99.40
2019-02-14T01:01:36.830Z,99.40
2019-02-14T01:04:10.434Z,99.50
2019-02-14T01:06:44.242Z,99.50
2019-02-14T01:09:17.850Z,99.50
2019-02-14T01:11:51.478Z,99.50
2019-02-14T01:14:25.168Z,99.30
2019-02-14T01:16:58.855Z,99.30
2019-02-14T01:19:32.686Z,99.40
2019-02-14T01:22:06.426Z,99.30
2019-02-14T01:24:40.529Z,99.40
2019-02-14T01:27:14.643Z,99.30
2019-02-14T01:29:48.286Z,99.20
2019-02-14T01:32:23.666Z,99.30
2019-02-14T01:34:57.289Z,99.30
2019-02-14T01:37:30.911Z,99.30
2019-02-14T01:40:06.382Z,99.30
2019-02-14T01:42:40.238Z,99.10
2019-02-14T01:45:13.892Z,99.10
2019-02-14T01:47:47.574Z,99.10
2019-02-14T01:50:21.178Z,99.10
2019-02-14T01:52:54.874Z,98.90
2019-02-14T01:55:28.497Z,99.00
2019-02-14T01:58:02.161Z,99.00
2019-02-14T02:00:35.919Z,98.90
2019-02-14T02:03:09.464Z,99.00
2019-02-14T02:05:50.562Z,99.00
2019-02-14T02:08:18.635Z,98.90
2019-02-14T02:10:52.406Z,98.90
2019-02-14T02:13:26.393Z,98.90
2019-02-14T02:16:00.176Z,98.90
2019-02-14T02:18:35.497Z,98.90
2019-02-14T02:21:09.057Z,98.80
2019-02-14T02:23:42.745Z,98.90
2019-02-14T02:26:16.590Z,98.90
2019-02-14T02:28:50.214Z,98.90
2019-02-14T02:31:24.115Z,98.90
2019-02-14T02:33:57.843Z,98.90
2019-02-14T02:36:31.621Z,98.90
2019-02-14T02:39:07.346Z,99.10
2019-02-14T02:41:40.944Z,99.10
2019-02-14T02:44:14.678Z,99.10
2019-02-14T02:46:48.306Z,99.00
2019-02-14T02:49:21.912Z,99.00
2019-02-14T02:51:55.532Z,98.90
2019-02-14T02:54:29.291Z,98.80
2019-02-14T02:57:02.900Z,99.10
2019-02-14T02:59:36.543Z,98.70
2019-02-14T03:02:10.304Z,98.50
2019-02-14T03:04:43.920Z,98.50
2019-02-14T03:07:17.574Z,98.40
2019-02-14T03:09:51.341Z,98.50
2019-02-14T03:12:25.240Z,98.40
2019-02-14T03:14:58.934Z,98.40
2019-02-14T03:17:32.831Z,98.40
2019-02-14T03:20:12.487Z,98.50
2019-02-14T03:22:46.137Z,98.40
2019-02-14T03:25:20.601Z,98.50
2019-02-14T03:27:54.198Z,98.50
2019-02-14T03:30:27.812Z,98.50
2019-02-14T03:33:01.518Z,98.50
2019-02-14T03:35:35.308Z,98.50
2019-02-14T03:38:08.937Z,98.30
2019-02-14T03:40:42.767Z,98.10
2019-02-14T03:43:16.475Z,98.10
2019-02-14T03:45:50.143Z,98.20
2019-02-14T03:48:23.779Z,98.20
2019-02-14T03:50:57.538Z,98.10
2019-02-14T03:53:31.267Z,98.40
2019-02-14T03:56:04.997Z,98.10
2019-02-14T03:58:38.667Z,98.10
2019-02-14T04:01:12.436Z,98.00
2019-02-14T04:03:46.050Z,98.00
2019-02-14T04:06:27.312Z,98.10
2019-02-14T04:08:54.978Z,98.20
2019-02-14T04:11:28.757Z,98.20
2019-02-14T04:14:02.362Z,98.30
2019-02-14T04:16:36.087Z,98.10
2019-02-14T04:19:09.740Z,98.00
2019-02-14T04:21:43.335Z,98.20
2019-02-14T04:24:16.975Z,98.30
2019-02-14T04:26:51.243Z,98.50
2019-02-14T04:29:24.955Z,98.60
2019-02-14T04:31:58.706Z,98.60
2019-02-14T04:34:32.342Z,98.80
2019-02-14T04:37:06.005Z,98.90
2019-02-14T04:39:39.766Z,99.00
2019-02-14T04:42:15.061Z,99.10
2019-02-14T04:44:48.852Z,99.20
2019-02-14T04:47:22.597Z,99.20
2019-02-14T04:49:56.529Z,99.30
2019-02-14T04:52:30.159Z,99.30
2019-02-14T04:55:04.927Z,99.30
2019-02-14T04:57:38.589Z,99.30
2019-02-14T05:00:16.161Z,99.30
2019-02-14T05:02:50.062Z,98.90
2019-02-14T05:05:23.739Z,99.20
2019-02-14T05:07:57.338Z,99.40
2019-02-14T05:10:31.078Z,99.10
2019-02-14T05:13:05.731Z,99.00
2019-02-14T05:15:39.476Z,99.00
2019-02-14T05:18:13.106Z,99.00
2019-02-14T05:20:46.739Z,98.90
2019-02-14T05:23:20.391Z,98.90
2019-02-14T05:25:54.014Z,98.90
2019-02-14T05:28:27.717Z,98.90
2019-02-14T05:31:01.481Z,98.80
2019-02-14T05:33:35.273Z,98.70
2019-02-14T05:36:08.910Z,98.80
2019-02-14T05:38:42.674Z,98.80
2019-02-14T05:41:16.410Z,98.80
2019-02-14T05:43:50.122Z,98.80
2019-02-14T05:46:23.782Z,98.80
2019-02-14T05:48:57.548Z,98.90
2019-02-14T05:51:31.227Z,98.90
2019-02-14T05:54:05.092Z,99.00
2019-02-14T05:56:38.971Z,99.00
2019-02-14T05:59:12.643Z,98.90
2019-02-14T06:01:46.456Z,98.90
2019-02-14T06:04:20.204Z,98.90
2019-02-14T06:07:00.883Z,99.00
2019-02-14T06:09:29.126Z,99.00
2019-02-14T06:12:02.840Z,98.90
2019-02-14T06:14:36.526Z,98.80
2019-02-14T06:17:11.557Z,98.80
2019-02-14T06:19:45.277Z,98.90
2019-02-14T06:22:19.070Z,98.90
2019-02-14T06:24:53.681Z,99.30
2019-02-14T06:27:27.395Z,98.70
2019-02-14T06:30:01.003Z,98.80
2019-02-14T06:32:36.367Z,98.70
2019-02-14T06:35:11.378Z,98.80
2019-02-14T06:37:45.085Z,98.80
2019-02-14T06:40:18.767Z,98.70
2019-02-14T06:42:52.395Z,98.10
2019-02-14T06:45:26.104Z,96.60
2019-02-14T06:47:59.695Z,95.70
2019-02-14T06:50:34.960Z,94.30
2019-02-14T06:53:08.951Z,93.30
2019-02-14T06:55:43.079Z,92.20
2019-02-14T06:58:16.733Z,91.40
2019-02-14T07:00:51.671Z,91.10
2019-02-14T07:03:25.503Z,90.60
2019-02-14T07:06:00.554Z,90.30
2019-02-14T07:08:34.348Z,89.90
2019-02-14T07:11:08.522Z,90.00
2019-02-14T07:13:42.165Z,90.80
2019-02-14T07:16:15.863Z,91.90
2019-02-14T07:18:49.540Z,92.50
2019-02-14T07:21:23.143Z,93.00
2019-02-14T07:23:56.947Z,94.00
2019-02-14T07:26:30.549Z,94.70
2019-02-14T07:29:04.500Z,95.10
2019-02-14T07:31:38.218Z,95.10
2019-02-14T07:34:12.100Z,95.10
2019-02-14T07:36:45.835Z,95.30
2019-02-14T07:39:19.604Z,95.40
2019-02-14T07:41:53.308Z,95.60
2019-02-14T07:44:27.021Z,95.60
2019-02-14T07:47:00.716Z,95.60
2019-02-14T07:49:34.532Z,95.40
2019-02-14T07:52:08.287Z,95.60
2019-02-14T07:54:41.941Z,95.90
2019-02-14T07:57:15.835Z,95.80
2019-02-14T07:59:49.436Z,96.00
2019-02-14T08:02:24.797Z,95.90
2019-02-14T08:04:58.559Z,95.90
2019-02-14T08:07:36.018Z,95.70
2019-02-14T08:10:10.824Z,95.70
2019-02-14T08:12:44.658Z,95.60
2019-02-14T08:15:18.335Z,95.80
2019-02-14T08:17:52.569Z,96.20
2019-02-14T08:20:26.356Z,96.20
2019-02-14T08:23:00.094Z,96.20
2019-02-14T08:25:33.860Z,96.20
2019-02-14T08:28:07.594Z,96.20
2019-02-14T08:30:41.768Z,96.10
2019-02-14T08:33:15.511Z,95.90
2019-02-14T08:35:49.277Z,96.10
2019-02-14T08:38:22.882Z,96.20
2019-02-14T08:40:56.586Z,96.30
2019-02-14T08:43:30.700Z,96.50
2019-02-14T08:46:04.512Z,96.50
2019-02-14T08:48:38.211Z,96.70
2019-02-14T08:51:11.959Z,96.90
2019-02-14T08:53:45.603Z,97.20
2019-02-14T08:56:19.330Z,97.20
2019-02-14T08:58:52.990Z,97.20
2019-02-14T09:01:26.761Z,97.30
2019-02-14T09:04:00.428Z,97.60
2019-02-14T09:06:34.098Z,97.70
2019-02-14T09:09:07.799Z,97.80
2019-02-14T09:11:41.478Z,97.80
2019-02-14T09:14:15.116Z,97.70
2019-02-14T09:16:48.894Z,97.70
2019-02-14T09:19:23.490Z,97.70
2019-02-14T09:21:57.936Z,98.20
2019-02-14T09:24:31.536Z,97.80
2019-02-14T09:27:05.246Z,98.10
2019-02-14T09:29:39.214Z,98.00
2019-02-14T09:32:13.244Z,98.00
2019-02-14T09:34:46.816Z,97.80
2019-02-14T09:37:22.741Z,97.50
2019-02-14T09:39:58.182Z,97.50
2019-02-14T09:42:31.893Z,97.60
2019-02-14T09:45:08.524Z,97.70
2019-02-14T09:47:42.157Z,97.60
2019-02-14T09:50:16.149Z,97.60
2019-02-14T09:52:50.793Z,97.30
2019-02-14T09:55:24.935Z,97.10
2019-02-14T09:57:58.515Z,97.40
2019-02-14T10:00:32.344Z,97.40
2019-02-14T10:03:06.327Z,97.40
2019-02-14T10:05:40.030Z,97.50
2019-02-14T10:08:13.830Z,97.70
2019-02-14T10:10:47.526Z,97.80
2019-02-14T10:13:22.330Z,98.00
2019-02-14T10:15:55.996Z,98.20
2019-02-14T10:18:29.996Z,98.40
2019-02-14T10:21:03.828Z,98.40
2019-02-14T10:23:37.396Z,98.50
2019-02-14T10:26:11.224Z,98.50
2019-02-14T10:28:45.500Z,98.50
2019-02-14T10:31:19.302Z,98.60
2019-02-14T10:33:53.779Z,99.00
2019-02-14T10:36:27.746Z,98.50
2019-02-14T10:39:01.587Z,98.60
2019-02-14T10:41:36.340Z,98.90
2019-02-14T10:44:10.019Z,98.70
2019-02-14T10:46:43.649Z,98.80
2019-02-14T10:49:17.354Z,98.90
2019-02-14T10:51:51.059Z,99.00
2019-02-14T10:54:26.658Z,99.10
2019-02-14T10:57:00.298Z,99.10
2019-02-14T10:59:33.980Z,99.10
2019-02-14T11:02:07.890Z,99.10
2019-02-14T11:04:41.661Z,99.10
2019-02-14T11:07:15.298Z,99.30
2019-02-14T11:09:49.045Z,99.30
2019-02-14T11:12:22.870Z,99.70
2019-02-14T11:14:56.540Z,99.50
2019-02-14T11:17:37.860Z,99.60
2019-02-14T11:20:13.678Z,99.50
2019-02-14T11:22:51.280Z,99.60
2019-02-14T11:25:31.754Z,99.60
2019-02-14T11:28:05.754Z,99.60
2019-02-14T11:30:41.134Z,99.60
2019-02-14T11:33:16.866Z,99.60
2019-02-14T11:35:50.516Z,99.40
2019-02-14T11:38:24.260Z,99.40
2019-02-14T11:40:57.918Z,99.40
2019-02-14T11:43:31.556Z,99.50
2019-02-14T11:46:05.268Z,99.40
2019-02-14T11:48:39.004Z,99.20
2019-02-14T11:51:12.853Z,99.10
2019-02-14T11:53:46.469Z,99.00
2019-02-14T11:56:20.162Z,98.80
2019-02-14T11:58:54.164Z,98.50
2019-02-14T12:01:27.822Z,98.40
2019-02-14T12:04:01.501Z,98.40
2019-02-14T12:06:35.182Z,97.90
2019-02-14T12:09:08.818Z,98.00
2019-02-14T12:11:42.668Z,98.00
2019-02-14T12:14:16.308Z,98.20
2019-02-14T12:16:50.070Z,97.90
2019-02-14T12:19:23.777Z,98.00
2019-02-14T12:21:57.410Z,97.70
2019-02-14T12:24:32.320Z,97.50
2019-02-14T12:27:06.185Z,97.30
2019-02-14T12:29:41.166Z,96.90
2019-02-14T12:32:16.575Z,96.60
2019-02-14T12:34:50.213Z,96.40
2019-02-14T12:37:23.901Z,96.40
2019-02-14T12:39:57.759Z,96.50
2019-02-14T12:42:31.567Z,96.50
2019-02-14T12:45:08.471Z,96.70
2019-02-14T12:47:44.899Z,96.30
2019-02-14T12:50:18.543Z,96.20
2019-02-14T12:52:52.166Z,96.20
2019-02-14T12:55:25.887Z,96.00
2019-02-14T12:57:59.609Z,96.20
2019-02-14T13:00:35.327Z,96.30
2019-02-14T13:03:08.899Z,96.10
2019-02-14T13:05:42.759Z,96.30
2019-02-14T13:08:16.481Z,96.60
2019-02-14T13:10:50.111Z,96.50
2019-02-14T13:13:23.719Z,96.70
2019-02-14T13:15:57.508Z,96.70
2019-02-14T13:18:31.093Z,97.20
2019-02-14T13:21:04.837Z,96.80
2019-02-14T13:23:38.476Z,97.30
2019-02-14T13:26:12.271Z,97.40
2019-02-14T13:28:46.275Z,97.40
2019-02-14T13:31:20.025Z,97.40
2019-02-14T13:33:53.624Z,97.80
2019-02-14T13:36:27.355Z,97.50
2019-02-14T13:39:01.025Z,97.30
2019-02-14T13:41:34.731Z,97.20
2019-02-14T13:44:08.385Z,97.50
2019-02-14T13:46:42.066Z,97.70
2019-02-14T13:49:15.815Z,97.80
2019-02-14T13:51:49.473Z,97.70
2019-02-14T13:54:23.224Z,97.80
2019-02-14T13:56:56.933Z,98.30
2019-02-14T13:59:32.132Z,98.10
2019-02-14T14:02:06.009Z,97.90
2019-02-14T14:04:39.782Z,97.80
2019-02-14T14:07:13.413Z,97.80
2019-02-14T14:09:47.225Z,97.50
2019-02-14T14:12:21.414Z,97.70
2019-02-14T14:14:55.133Z,97.70
2019-02-14T14:17:28.834Z,97.70
2019-02-14T14:20:02.515Z,97.70
2019-02-14T14:22:36.806Z,97.70
2019-02-14T14:25:11.661Z,97.70
2019-02-14T14:27:45.337Z,97.60
2019-02-14T14:30:19.007Z,97.60
2019-02-14T14:32:52.722Z,97.60
2019-02-14T14:35:26.397Z,97.50
2019-02-14T14:38:00.111Z,97.90
2019-02-14T14:40:33.987Z,98.10
2019-02-14T14:43:18.068Z,98.50
2019-02-14T14:46:02.185Z,98.00
2019-02-14T14:48:37.543Z,97.90
2019-02-14T14:51:11.273Z,97.90
2019-02-14T14:53:45.508Z,97.80
2019-02-14T14:56:19.239Z,97.80
2019-02-14T14:58:52.867Z,97.90
2019-02-14T15:01:26.609Z,97.90
2019-02-14T15:04:00.257Z,97.80
2019-02-14T15:06:35.451Z,97.80
2019-02-14T15:09:09.156Z,97.90
2019-02-14T15:11:43.391Z,97.90
2019-02-14T15:14:17.017Z,98.10
2019-02-14T15:16:51.213Z,98.10
2019-02-14T15:19:24.849Z,98.10
2019-02-14T15:21:59.166Z,98.10
2019-02-14T15:24:32.908Z,98.10
2019-02-14T15:27:06.547Z,98.20
2019-02-14T15:29:40.283Z,98.20
2019-02-14T15:32:13.920Z,98.20
2019-02-14T15:34:47.592Z,98.30
2019-02-14T15:37:21.292Z,98.60
2019-02-14T15:39:55.010Z,98.60
2019-02-14T15:42:28.757Z,98.70
2019-02-14T15:45:02.475Z,98.90
2019-02-14T15:47:36.071Z,99.10
2019-02-14T15:50:09.981Z,99.10
2019-02-14T15:52:43.913Z,99.30
2019-02-14T15:55:19.100Z,99.50
2019-02-14T15:57:53.164Z,99.60
2019-02-14T16:00:26.939Z,99.60
2019-02-14T16:03:00.754Z,99.70
2019-02-14T16:05:34.465Z,99.70
2019-02-14T16:08:08.214Z,99.80
2019-02-14T16:10:42.085Z,99.80
2019-02-14T16:13:15.750Z,99.80
2019-02-14T16:15:49.591Z,99.90
2019-02-14T16:18:25.203Z,99.90
2019-02-14T16:20:58.702Z,99.90
2019-02-14T16:23:34.176Z,99.90
2019-02-14T16:26:09.448Z,99.90
2019-02-14T16:28:46.107Z,99.90
2019-02-14T16:31:19.697Z,99.90
2019-02-14T16:33:53.370Z,99.90
2019-02-14T16:36:27.087Z,99.90
2019-02-14T16:39:01.412Z,99.90
2019-02-14T16:41:35.209Z,99.90
2019-02-14T16:44:09.041Z,99.90
2019-02-14T16:46:42.758Z,99.90
2019-02-14T16:49:16.418Z,99.90
2019-02-14T16:51:50.047Z,99.90
2019-02-14T16:54:23.694Z,99.90
2019-02-14T16:56:57.276Z,99.90
2019-02-14T16:59:31.268Z,99.90
2019-02-14T17:02:04.984Z,99.90
2019-02-14T17:04:38.619Z,99.90
2019-02-14T17:07:12.230Z,99.90
2019-02-14T17:09:45.881Z,99.90
2019-02-14T17:12:19.628Z,99.90
2019-02-14T17:14:53.283Z,99.90
2019-02-14T17:17:28.047Z,99.90
2019-02-14T17:20:01.918Z,99.90
2019-02-14T17:22:35.774Z,99.90
2019-02-14T17:25:09.681Z,99.90
2019-02-14T17:27:43.467Z,99.90
2019-02-14T17:30:17.222Z,99.90
2019-02-14T17:32:50.905Z,99.90
2019-02-14T17:35:24.778Z,99.90
2019-02-14T17:37:58.420Z,99.90
2019-02-14T17:40:32.124Z,99.90
2019-02-14T17:43:08.384Z,99.90
2019-02-14T17:45:42.436Z,99.90
2019-02-14T17:48:16.142Z,99.90
2019-02-14T17:50:49.803Z,99.90
2019-02-14T17:53:23.506Z,99.90
2019-02-14T17:55:57.286Z,99.90
2019-02-14T17:58:31.043Z,99.90
2019-02-14T18:01:04.838Z,99.90
2019-02-14T18:03:38.575Z,99.90
2019-02-14T18:06:12.206Z,99.90
2019-02-14T18:08:45.900Z,99.90
2019-02-14T18:11:19.656Z,99.90
2019-02-14T18:13:53.954Z,99.90
2019-02-14T18:16:27.633Z,99.90
2019-02-14T18:19:01.308Z,99.90
2019-02-14T18:21:35.087Z,99.90
2019-02-14T18:24:08.793Z,99.90
2019-02-14T18:26:42.590Z,99.90
2019-02-14T18:29:16.695Z,99.90
2019-02-14T18:31:50.546Z,99.90
2019-02-14T18:34:25.854Z,99.90
2019-02-14T18:36:59.617Z,99.90
2019-02-14T18:39:33.341Z,99.90
2019-02-14T18:42:07.056Z,99.90
2019-02-14T18:44:41.782Z,99.90
2019-02-14T18:47:15.428Z,99.90
2019-02-14T18:49:49.059Z,99.90
2019-02-14T18:52:22.851Z,99.90
2019-02-14T18:54:56.570Z,99.90
2019-02-14T18:57:30.427Z,99.90
2019-02-14T19:00:10.550Z,99.90
2019-02-14T19:02:44.369Z,99.90
2019-02-14T19:05:18.000Z,99.90
2019-02-14T19:07:51.658Z,99.90
2019-02-14T19:10:25.488Z,99.90
2019-02-14T19:12:59.224Z,99.80
2019-02-14T19:15:32.908Z,99.90
2019-02-14T19:18:06.662Z,99.80
2019-02-14T19:20:40.362Z,99.80
2019-02-14T19:23:23.344Z,99.70
2019-02-14T19:25:49.495Z,99.70
2019-02-14T19:28:23.447Z,99.80
2019-02-14T19:30:57.151Z,99.80
2019-02-14T19:33:30.886Z,99.80
2019-02-14T19:36:04.554Z,99.80
2019-02-14T19:38:38.207Z,99.90
2019-02-14T19:41:11.912Z,99.80
2019-02-14T19:43:45.879Z,99.80
2019-02-14T19:46:19.556Z,99.80
2019-02-14T19:48:53.171Z,99.90
2019-02-14T19:51:26.930Z,99.80
2019-02-14T19:54:00.692Z,99.80
2019-02-14T19:56:34.662Z,99.90
2019-02-14T19:59:08.516Z,99.90
2019-02-14T20:01:42.269Z,99.80
2019-02-14T20:04:16.085Z,99.90
2019-02-14T20:06:49.706Z,99.80
2019-02-14T20:09:23.349Z,99.80
2019-02-14T20:11:59.087Z,99.90
2019-02-14T20:14:33.542Z,99.80
2019-02-14T20:17:07.644Z,99.70
2019-02-14T20:19:41.402Z,99.70
2019-02-14T20:22:15.448Z,99.70
2019-02-14T20:24:49.228Z,99.70
2019-02-14T20:27:22.865Z,99.70
2019-02-14T20:29:56.528Z,99.70
2019-02-14T20:32:30.244Z,99.60
2019-02-14T20:35:04.577Z,99.40
2019-02-14T20:37:38.376Z,99.30
2019-02-14T20:40:12.160Z,99.20
2019-02-14T20:42:47.052Z,99.20
2019-02-14T20:45:20.740Z,99.00
2019-02-14T20:47:56.929Z,99.00
2019-02-14T20:50:29.746Z,98.80
2019-02-14T20:53:03.566Z,98.80
2019-02-14T20:55:37.225Z,98.80
2019-02-14T20:58:11.115Z,98.80
2019-02-14T21:00:45.117Z,98.70
2019-02-14T21:03:20.262Z,98.60
2019-02-14T21:05:54.032Z,98.50
2019-02-14T21:08:27.838Z,98.50
2019-02-14T21:11:03.309Z,98.50
2019-02-14T21:13:37.634Z,98.50
2019-02-14T21:16:11.340Z,98.50
2019-02-14T21:18:45.035Z,98.50
2019-02-14T21:21:18.755Z,98.50
2019-02-14T21:23:52.591Z,98.50
2019-02-14T21:26:26.300Z,98.50
2019-02-14T21:29:00.038Z,98.70
2019-02-14T21:31:33.829Z,98.50
2019-02-14T21:34:07.534Z,98.60
2019-02-14T21:36:41.184Z,98.70
2019-02-14T21:39:14.926Z,98.70
2019-02-14T21:41:49.362Z,98.60
2019-02-14T21:44:23.079Z,98.70
2019-02-14T21:46:56.697Z,98.70
2019-02-14T21:49:30.440Z,98.70
2019-02-14T21:52:04.086Z,98.80
2019-02-14T21:54:37.978Z,98.80
2019-02-14T21:57:11.945Z,98.90
2019-02-14T21:59:45.587Z,98.90
2019-02-14T22:02:20.738Z,98.90
2019-02-14T22:04:54.775Z,98.90
2019-02-14T22:07:28.457Z,98.90
2019-02-14T22:10:02.293Z,98.90
2019-02-14T22:12:40.555Z,98.90
2019-02-14T22:15:20.005Z,99.00
2019-02-14T22:17:53.660Z,99.00
2019-02-14T22:20:27.420Z,99.10
2019-02-14T22:23:01.063Z,99.00
2019-02-14T22:25:34.842Z,99.10
2019-02-14T22:28:08.574Z,99.00
2019-02-14T22:30:42.589Z,99.00
2019-02-14T22:33:17.152Z,98.90
2019-02-14T22:35:50.791Z,98.80
2019-02-14T22:38:24.415Z,98.70
2019-02-14T22:40:58.092Z,98.60
2019-02-14T22:43:31.725Z,98.50
2019-02-14T22:46:05.463Z,98.50
2019-02-14T22:48:40.835Z,98.40
2019-02-14T22:51:14.895Z,98.40
2019-02-14T22:53:49.202Z,98.40
2019-02-14T22:56:22.908Z,98.40
2019-02-14T22:58:56.603Z,98.30
2019-02-14T23:01:30.445Z,98.40
2019-02-14T23:04:04.189Z,98.20
2019-02-14T23:06:37.879Z,98.10
2019-02-14T23:09:11.654Z,98.00
2019-02-14T23:11:45.251Z,98.00
2019-02-14T23:14:18.951Z,97.90
2019-02-14T23:16:52.587Z,97.90
2019-02-14T23:19:26.275Z,97.80
2019-02-14T23:22:00.099Z,97.70
2019-02-14T23:24:33.743Z,97.50
2019-02-14T23:27:07.345Z,97.40
2019-02-14T23:29:41.017Z,97.50
2019-02-14T23:32:15.235Z,97.50
2019-02-14T23:34:48.965Z,97.60
2019-02-14T23:37:22.639Z,97.60
2019-02-14T23:39:56.403Z,97.60
2019-02-14T23:42:30.001Z,97.50
2019-02-14T23:45:04.064Z,97.30
2019-02-14T23:47:37.867Z,97.50
2019-02-14T23:50:11.876Z,97.50
2019-02-14T23:52:45.513Z,97.30
2019-02-14T23:55:19.135Z,97.30
2019-02-14T23:57:52.889Z,97.10
